createdAt,value
2023-03-04T00:04:48.169Z,100919.72
2023-03-04T00:09:49.542Z,100920.72
2023-03-04T00:14:51.361Z,100921.19
2023-03-04T00:19:52.700Z,100915.78
2023-03-04T00:24:54.065Z,100923.75
2023-03-04T00:29:56.114Z,100927.41
2023-03-04T00:34:57.481Z,100920.47
2023-03-04T00:39:59.474Z,100927.97
2023-03-04T00:45:00.818Z,100929.16
2023-03-04T00:50:02.322Z,100920.47
2023-03-04T00:55:04.610Z,100917.16
2023-03-04T01:00:06.627Z,100912.66
2023-03-04T01:05:08.734Z,100913.41
2023-03-04T01:10:12.606Z,100909.66
2023-03-04T01:15:14.422Z,100912.94
2023-03-04T01:20:15.943Z,100907.25
2023-03-04T01:25:17.381Z,100900.88
2023-03-04T01:30:18.699Z,100883.19
2023-03-04T01:35:20.033Z,100882.63
2023-03-04T01:40:22.004Z,100885.19
2023-03-04T01:45:23.944Z,100874.38
2023-03-04T01:50:35.080Z,100855.50
2023-03-04T01:55:36.937Z,100843.84
2023-03-04T02:00:38.977Z,100857.03
2023-03-04T02:05:46.321Z,100845.06
2023-03-04T02:10:48.422Z,100849.28
2023-03-04T02:15:49.835Z,100838.75
2023-03-04T02:21:13.360Z,100840.91
2023-03-04T02:26:20.104Z,100837.41
2023-03-04T02:31:30.259Z,100831.50
2023-03-04T02:36:33.371Z,100835.47
2023-03-04T02:41:35.649Z,100832.81
2023-03-04T02:46:37.076Z,100821.53
2023-03-04T02:51:38.504Z,100826.09
2023-03-04T02:56:45.352Z,100822.50
2023-03-04T03:01:47.027Z,100826.09
2023-03-04T03:06:48.873Z,100816.53
2023-03-04T03:11:50.239Z,100813.06
2023-03-04T03:16:51.570Z,100804.34
2023-03-04T03:21:52.968Z,100793.03
2023-03-04T03:26:54.292Z,100822.31
2023-03-04T03:31:56.919Z,100794.22
2023-03-04T03:36:58.475Z,100812.41
2023-03-04T03:41:59.918Z,100756.13
2023-03-04T03:47:01.423Z,100809.66
2023-03-04T03:52:03.227Z,100789.69
2023-03-04T03:57:04.564Z,100808.34
2023-03-04T04:02:06.223Z,100804.50
2023-03-04T04:07:07.645Z,100799.31
2023-03-04T04:12:09.136Z,100786.22
2023-03-04T04:17:11.651Z,100804.50
2023-03-04T04:22:16.232Z,100774.56
2023-03-04T04:27:17.570Z,100811.56
2023-03-04T04:32:18.916Z,100779.47
2023-03-04T04:37:20.772Z,100779.91
2023-03-04T04:42:22.460Z,100790.75
2023-03-04T04:47:23.906Z,100760.25
2023-03-04T04:52:25.246Z,100794.28
2023-03-04T04:57:26.637Z,100776.22
2023-03-04T05:02:28.033Z,100755.25
2023-03-04T05:07:29.396Z,100786.00
2023-03-04T05:12:30.773Z,100740.50
2023-03-04T05:17:32.124Z,100777.88
2023-03-04T05:22:34.021Z,100759.09
2023-03-04T05:27:37.683Z,100786.06
2023-03-04T05:32:39.449Z,100785.09
2023-03-04T05:37:40.818Z,100757.91
2023-03-04T05:42:42.183Z,100785.59
2023-03-04T05:47:43.679Z,100776.19
2023-03-04T05:52:45.085Z,100762.59
2023-03-04T05:57:46.797Z,100780.13
2023-03-04T06:02:48.393Z,100798.63
2023-03-04T06:07:52.175Z,100798.72
2023-03-04T06:12:53.751Z,100788.69
2023-03-04T06:17:55.101Z,100803.75
2023-03-04T06:22:56.584Z,100775.94
2023-03-04T06:27:57.961Z,100815.72
2023-03-04T06:32:59.266Z,100824.59
2023-03-04T06:38:00.641Z,100834.44
2023-03-04T06:43:02.064Z,100831.22
2023-03-04T06:48:03.590Z,100826.31
2023-03-04T06:53:05.319Z,100832.44
2023-03-04T06:58:06.743Z,100838.63
2023-03-04T07:03:11.644Z,100833.25
2023-03-04T07:08:13.291Z,100841.97
2023-03-04T07:13:15.008Z,100829.09
2023-03-04T07:18:16.316Z,100841.56
2023-03-04T07:23:17.735Z,100851.91
2023-03-04T07:28:19.360Z,100861.41
2023-03-04T07:33:20.812Z,100846.78
2023-03-04T07:38:22.204Z,100846.31
2023-03-04T07:43:23.640Z,100874.75
2023-03-04T07:48:25.130Z,100878.13
2023-03-04T07:53:26.485Z,100865.13
2023-03-04T07:58:27.822Z,100867.00
2023-03-04T08:03:29.744Z,100852.94
2023-03-04T08:08:31.773Z,100854.34
2023-03-04T08:13:33.251Z,100868.72
2023-03-04T08:18:34.816Z,100882.25
2023-03-04T08:23:36.254Z,100881.63
2023-03-04T08:28:38.340Z,100876.97
2023-03-04T08:33:39.769Z,100888.22
2023-03-04T08:38:41.503Z,100887.22
2023-03-04T08:43:43.874Z,100894.31
2023-03-04T08:48:45.616Z,100897.19
2023-03-04T08:53:47.187Z,100894.22
2023-03-04T08:58:48.563Z,100884.50
2023-03-04T09:03:50.088Z,100891.00
2023-03-04T09:08:51.525Z,100881.34
2023-03-04T09:13:53.685Z,100881.56
2023-03-04T09:18:55.216Z,100887.13
2023-03-04T09:23:56.694Z,100857.72
2023-03-04T09:29:00.750Z,100882.00
2023-03-04T09:34:02.187Z,100885.75
2023-03-04T09:39:04.887Z,100884.31
2023-03-04T09:44:24.257Z,100886.75
2023-03-04T09:49:26.515Z,100881.47
2023-03-04T09:54:46.716Z,100884.28
2023-03-04T10:00:13.088Z,100872.75
2023-03-04T10:05:19.985Z,100868.25
2023-03-04T10:10:33.848Z,100885.13
2023-03-04T10:15:42.374Z,100867.09
2023-03-04T10:20:56.809Z,100856.88
2023-03-04T10:26:00.220Z,100877.22
2023-03-04T10:31:27.239Z,100864.13
2023-03-04T10:36:31.411Z,100856.34
2023-03-04T10:41:33.242Z,100855.25
2023-03-04T10:46:48.383Z,100850.47
2023-03-04T10:52:03.855Z,100850.28
2023-03-04T10:57:14.780Z,100807.28
2023-03-04T11:02:29.160Z,100831.97
2023-03-04T11:07:34.096Z,100832.31
2023-03-04T11:12:39.870Z,100808.94
2023-03-04T11:17:46.989Z,100835.91
2023-03-04T11:22:48.681Z,100807.41
2023-03-04T11:27:55.810Z,100809.41
2023-03-04T11:33:09.989Z,100825.09
2023-03-04T11:38:24.648Z,100829.78
2023-03-04T11:43:26.046Z,100820.56
2023-03-04T11:48:45.404Z,100768.81
2023-03-04T11:53:59.723Z,100787.97
2023-03-04T11:59:15.371Z,100796.38
2023-03-04T12:04:54.549Z,100801.09
2023-03-04T12:10:22.509Z,100798.66
2023-03-04T12:15:32.763Z,100787.59
2023-03-04T12:20:46.281Z,100781.22
2023-03-04T12:26:17.049Z,100763.84
2023-03-04T12:31:35.841Z,100771.22
2023-03-04T12:36:49.624Z,100762.47
2023-03-04T12:41:57.214Z,100754.53
2023-03-04T12:47:26.344Z,100735.16
2023-03-04T12:53:03.776Z,100725.59
2023-03-04T12:58:13.892Z,100722.44
2023-03-04T13:03:26.597Z,100714.22
2023-03-04T13:08:33.997Z,100707.41
2023-03-04T13:13:37.175Z,100705.69
2023-03-04T13:18:39.471Z,100686.78
2023-03-04T13:23:41.009Z,100646.88
2023-03-04T13:28:43.028Z,100678.41
2023-03-04T13:33:48.657Z,100677.13
2023-03-04T13:39:20.871Z,100672.50
2023-03-04T13:44:34.411Z,100667.84
2023-03-04T13:49:35.759Z,100675.56
2023-03-04T13:54:37.466Z,100653.13
2023-03-04T13:59:45.205Z,100662.31
2023-03-04T14:04:57.401Z,100641.38
2023-03-04T14:10:15.482Z,100652.31
2023-03-04T14:15:21.634Z,100632.31
2023-03-04T14:20:33.920Z,100623.75
2023-03-04T14:25:36.980Z,100625.00
2023-03-04T14:30:43.123Z,100639.34
2023-03-04T14:35:48.128Z,100633.03
2023-03-04T14:41:05.959Z,100611.94
2023-03-04T14:46:13.067Z,100610.56
2023-03-04T14:51:36.948Z,100611.94
2023-03-04T14:56:43.888Z,100608.22
2023-03-04T15:01:46.092Z,100610.25
2023-03-04T15:06:50.250Z,100607.19
2023-03-04T15:12:01.975Z,100601.56
2023-03-04T15:17:03.478Z,100600.38
2023-03-04T15:22:06.823Z,100591.59
2023-03-04T15:27:12.315Z,100599.50
2023-03-04T15:32:13.696Z,100577.91
2023-03-04T15:37:27.298Z,100575.66
2023-03-04T15:42:28.939Z,100585.13
2023-03-04T15:47:30.389Z,100569.28
2023-03-04T15:52:33.502Z,100578.72
2023-03-04T15:57:34.935Z,100589.56
2023-03-04T16:02:36.297Z,100583.25
2023-03-04T16:07:40.431Z,100590.81
2023-03-04T16:12:42.132Z,100559.28
2023-03-04T16:17:44.026Z,100573.66
2023-03-04T16:22:47.056Z,100549.56
2023-03-04T16:27:52.304Z,100579.34
2023-03-04T16:32:54.368Z,100539.25
2023-03-04T16:37:56.821Z,100549.19
2023-03-04T16:42:58.173Z,100569.59
2023-03-04T16:47:59.576Z,100566.22
2023-03-04T16:53:01.008Z,100569.78
2023-03-04T16:58:02.373Z,100571.22
2023-03-04T17:03:04.213Z,100565.91
2023-03-04T17:08:05.786Z,100560.41
2023-03-04T17:13:09.067Z,100559.31
2023-03-04T17:18:10.507Z,100574.09
2023-03-04T17:23:11.914Z,100571.34
2023-03-04T17:28:13.355Z,100582.41
2023-03-04T17:33:14.710Z,100587.06
2023-03-04T17:38:16.538Z,100593.41
2023-03-04T17:43:17.866Z,100589.41
2023-03-04T17:48:19.322Z,100569.19
2023-03-04T17:53:20.788Z,100595.38
2023-03-04T17:58:23.199Z,100586.81
2023-03-04T18:03:24.542Z,100586.59
2023-03-04T18:08:26.015Z,100584.09
2023-03-04T18:13:27.388Z,100574.09
2023-03-04T18:18:28.947Z,100555.41
2023-03-04T18:23:30.878Z,100558.44
2023-03-04T18:28:32.418Z,100564.88
2023-03-04T18:33:34.446Z,100569.38
2023-03-04T18:38:35.797Z,100577.38
2023-03-04T18:43:37.195Z,100574.34
2023-03-04T18:48:45.016Z,100572.09
2023-03-04T18:53:46.509Z,100568.25
2023-03-04T18:58:50.472Z,100555.03
2023-03-04T19:03:54.248Z,100567.47
2023-03-04T19:08:55.727Z,100551.97
2023-03-04T19:13:57.338Z,100583.75
2023-03-04T19:18:58.706Z,100563.34
2023-03-04T19:24:00.095Z,100582.25
2023-03-04T19:29:01.812Z,100581.75
2023-03-04T19:34:04.850Z,100568.16
2023-03-04T19:39:08.113Z,100593.22
2023-03-04T19:44:09.469Z,100583.47
2023-03-04T19:49:11.352Z,100583.47
2023-03-04T19:54:12.695Z,100573.44
2023-03-04T19:59:14.163Z,100571.44
2023-03-04T20:04:18.410Z,100577.91
2023-03-04T20:09:19.912Z,100570.81
2023-03-04T20:14:21.322Z,100546.66
2023-03-04T20:19:22.694Z,100564.38
2023-03-04T20:24:25.164Z,100532.16
2023-03-04T20:29:28.521Z,100572.34
2023-03-04T20:34:29.835Z,100572.72
2023-03-04T20:39:31.279Z,100570.47
2023-03-04T20:44:33.140Z,100568.38
2023-03-04T20:49:34.754Z,100566.19
2023-03-04T20:54:38.461Z,100580.56
2023-03-04T20:59:40.984Z,100576.78
2023-03-04T21:04:43.850Z,100546.13
2023-03-04T21:09:45.385Z,100582.75
2023-03-04T21:14:46.983Z,100555.41
2023-03-04T21:19:48.299Z,100567.31
2023-03-04T21:24:49.746Z,100562.94
2023-03-04T21:29:52.522Z,100541.38
2023-03-04T21:34:54.889Z,100543.47
2023-03-04T21:39:56.324Z,100555.84
2023-03-04T21:44:57.759Z,100554.06
2023-03-04T21:49:59.046Z,100554.06
2023-03-04T21:55:00.566Z,100547.16
2023-03-04T22:00:02.456Z,100546.66
2023-03-04T22:05:05.009Z,100553.97
2023-03-04T22:10:06.999Z,100499.44
2023-03-04T22:15:10.172Z,100530.97
2023-03-04T22:20:12.431Z,100518.88
2023-03-04T22:25:13.846Z,100461.25
2023-03-04T22:30:17.314Z,100526.47
2023-03-04T22:35:19.303Z,100514.63
2023-03-04T22:40:20.842Z,100522.69
2023-03-04T22:45:22.250Z,100535.44
2023-03-04T22:50:23.663Z,100513.78
2023-03-04T22:55:25.003Z,100489.78
2023-03-04T23:00:28.477Z,100524.72
2023-03-04T23:05:29.864Z,100525.47
2023-03-04T23:10:31.228Z,100529.75
2023-03-04T23:15:32.521Z,100541.88
2023-03-04T23:20:33.907Z,100518.50
2023-03-04T23:25:35.926Z,100513.78
2023-03-04T23:30:37.793Z,100522.91
2023-03-04T23:35:40.145Z,100529.63
2023-03-04T23:40:41.512Z,100516.16
2023-03-04T23:45:43.583Z,100495.06
2023-03-04T23:50:51.476Z,100503.56
2023-03-04T23:55:52.921Z,100520.38
